sensor_id;sensor_type;location;lat;lon;timestamp;temperature;humidity
31084;DHT22;36333;51.382;0.016;2022-08-21T00:02:20;15.30;99.90
31084;DHT22;36333;51.382;0.016;2022-08-21T00:04:54;16.60;99.90
31084;DHT22;36333;51.382;0.016;2022-08-21T00:07:24;16.10;99.90
31084;DHT22;36333;51.382;0.016;2022-08-21T00:09:53;15.00;99.90
31084;DHT22;36333;51.382;0.016;2022-08-21T00:12:21;15.30;99.90
31084;DHT22;36333;51.382;0.016;2022-08-21T00:14:49;15.30;99.90
31084;DHT22;36333;51.382;0.016;2022-08-21T00:17:21;15.30;99.90
31084;DHT22;36333;51.382;0.016;2022-08-21T00:19:49;15.30;99.90
31084;DHT22;36333;51.382;0.016;2022-08-21T00:22:17;15.50;99.90
31084;DHT22;36333;51.382;0.016;2022-08-21T00:24:45;15.20;99.90
31084;DHT22;36333;51.382;0.016;2022-08-21T00:27:12;15.20;99.90
31084;DHT22;36333;51.382;0.016;2022-08-21T00:29:40;15.20;99.90
31084;DHT22;36333;51.382;0.016;2022-08-21T00:32:08;15.10;99.90
31084;DHT22;36333;51.382;0.016;2022-08-21T00:34:35;15.10;99.90
31084;DHT22;36333;51.382;0.016;2022-08-21T00:37:03;15.10;99.90
31084;DHT22;36333;51.382;0.016;2022-08-21T00:39:31;15.00;99.90
31084;DHT22;36333;51.382;0.016;2022-08-21T00:41:58;15.00;99.90
31084;DHT22;36333;51.382;0.016;2022-08-21T00:44:26;15.00;99.90
31084;DHT22;36333;51.382;0.016;2022-08-21T00:46:54;15.00;99.90
31084;DHT22;36333;51.382;0.016;2022-08-21T00:49:21;16.00;99.90
31084;DHT22;36333;51.382;0.016;2022-08-21T00:51:53;15.00;99.90
31084;DHT22;36333;51.382;0.016;2022-08-21T00:54:25;14.90;99.90
31084;DHT22;36333;51.382;0.016;2022-08-21T00:56:59;15.00;99.90
31084;DHT22;36333;51.382;0.016;2022-08-21T00:59:32;15.00;99.90
31084;DHT22;36333;51.382;0.016;2022-08-21T01:02:03;14.90;99.90
31084;DHT22;36333;51.382;0.016;2022-08-21T01:04:31;14.90;99.90
31084;DHT22;36333;51.382;0.016;2022-08-21T01:06:58;14.90;99.90
31084;DHT22;36333;51.382;0.016;2022-08-21T01:09:26;14.90;99.90
31084;DHT22;36333;51.382;0.016;2022-08-21T01:11:54;14.90;99.90
31084;DHT22;36333;51.382;0.016;2022-08-21T01:14:23;14.90;99.90
31084;DHT22;36333;51.382;0.016;2022-08-21T01:16:52;14.80;99.90
31084;DHT22;36333;51.382;0.016;2022-08-21T01:19:20;14.80;99.90
31084;DHT22;36333;51.382;0.016;2022-08-21T01:21:49;14.80;99.90
31084;DHT22;36333;51.382;0.016;2022-08-21T01:24:17;14.80;99.90
31084;DHT22;36333;51.382;0.016;2022-08-21T01:26:45;14.70;99.90
31084;DHT22;36333;51.382;0.016;2022-08-21T01:29:45;14.70;99.90
31084;DHT22;36333;51.382;0.016;2022-08-21T01:32:17;14.70;99.90
31084;DHT22;36333;51.382;0.016;2022-08-21T01:34:48;14.70;99.90
31084;DHT22;36333;51.382;0.016;2022-08-21T01:37:16;14.70;99.90
31084;DHT22;36333;51.382;0.016;2022-08-21T01:39:45;14.70;99.90
31084;DHT22;36333;51.382;0.016;2022-08-21T01:42:13;14.70;99.90
31084;DHT22;36333;51.382;0.016;2022-08-21T01:44:41;14.70;99.90
31084;DHT22;36333;51.382;0.016;2022-08-21T01:47:11;14.70;99.90
31084;DHT22;36333;51.382;0.016;2022-08-21T01:49:42;14.70;99.90
31084;DHT22;36333;51.382;0.016;2022-08-21T01:52:11;14.70;99.90
31084;DHT22;36333;51.382;0.016;2022-08-21T01:54:40;14.70;99.90
31084;DHT22;36333;51.382;0.016;2022-08-21T01:57:08;14.70;99.90
31084;DHT22;36333;51.382;0.016;2022-08-21T01:59:36;14.60;99.90
31084;DHT22;36333;51.382;0.016;2022-08-21T02:02:05;14.60;99.90
31084;DHT22;36333;51.382;0.016;2022-08-21T02:04:33;14.60;99.90
31084;DHT22;36333;51.382;0.016;2022-08-21T02:07:01;14.60;99.90
31084;DHT22;36333;51.382;0.016;2022-08-21T02:09:28;14.60;99.90
31084;DHT22;36333;51.382;0.016;2022-08-21T02:11:57;14.60;99.90
31084;DHT22;36333;51.382;0.016;2022-08-21T02:14:25;14.60;99.90
31084;DHT22;36333;51.382;0.016;2022-08-21T02:16:59;14.60;99.90
31084;DHT22;36333;51.382;0.016;2022-08-21T02:19:37;14.60;99.90
31084;DHT22;36333;51.382;0.016;2022-08-21T02:22:08;14.60;99.90
31084;DHT22;36333;51.382;0.016;2022-08-21T02:24:37;14.60;99.90
31084;DHT22;36333;51.382;0.016;2022-08-21T02:27:24;14.60;99.90
31084;DHT22;36333;51.382;0.016;2022-08-21T02:29:56;14.50;99.90
31084;DHT22;36333;51.382;0.016;2022-08-21T02:32:24;14.60;99.90
31084;DHT22;36333;51.382;0.016;2022-08-21T02:34:53;14.50;99.90
31084;DHT22;36333;51.382;0.016;2022-08-21T02:37:22;14.50;99.90
31084;DHT22;36333;51.382;0.016;2022-08-21T02:39:50;14.50;99.90
31084;DHT22;36333;51.382;0.016;2022-08-21T02:42:18;14.60;99.90
31084;DHT22;36333;51.382;0.016;2022-08-21T02:44:45;14.50;99.90
31084;DHT22;36333;51.382;0.016;2022-08-21T02:47:13;14.50;99.90
31084;DHT22;36333;51.382;0.016;2022-08-21T02:49:41;14.50;99.90
31084;DHT22;36333;51.382;0.016;2022-08-21T02:52:09;14.50;99.90
31084;DHT22;36333;51.382;0.016;2022-08-21T02:54:36;14.00;99.90
31084;DHT22;36333;51.382;0.016;2022-08-21T02:57:04;14.60;99.90
31084;DHT22;36333;51.382;0.016;2022-08-21T02:59:31;14.60;99.90
31084;DHT22;36333;51.382;0.016;2022-08-21T03:01:59;14.60;99.90
31084;DHT22;36333;51.382;0.016;2022-08-21T03:04:27;14.60;99.90
31084;DHT22;36333;51.382;0.016;2022-08-21T03:06:54;14.60;99.90
31084;DHT22;36333;51.382;0.016;2022-08-21T03:09:22;14.60;99.90
31084;DHT22;36333;51.382;0.016;2022-08-21T03:11:50;14.60;99.90
31084;DHT22;36333;51.382;0.016;2022-08-21T03:14:18;14.50;99.90
31084;DHT22;36333;51.382;0.016;2022-08-21T03:16:46;14.50;99.90
31084;DHT22;36333;51.382;0.016;2022-08-21T03:19:14;15.20;99.90
31084;DHT22;36333;51.382;0.016;2022-08-21T03:21:44;14.50;99.90
31084;DHT22;36333;51.382;0.016;2022-08-21T03:24:12;14.40;99.90
31084;DHT22;36333;51.382;0.016;2022-08-21T03:26:39;13.80;99.90
31084;DHT22;36333;51.382;0.016;2022-08-21T03:29:07;14.40;99.90
31084;DHT22;36333;51.382;0.016;2022-08-21T03:31:35;14.40;99.90
31084;DHT22;36333;51.382;0.016;2022-08-21T03:34:03;14.30;99.90
31084;DHT22;36333;51.382;0.016;2022-08-21T03:36:30;14.30;99.90
31084;DHT22;36333;51.382;0.016;2022-08-21T03:38:58;14.30;99.90
31084;DHT22;36333;51.382;0.016;2022-08-21T03:41:25;14.30;99.90
31084;DHT22;36333;51.382;0.016;2022-08-21T03:43:53;14.20;99.90
31084;DHT22;36333;51.382;0.016;2022-08-21T03:46:21;14.20;99.90
31084;DHT22;36333;51.382;0.016;2022-08-21T03:48:48;14.20;99.90
31084;DHT22;36333;51.382;0.016;2022-08-21T03:51:16;14.20;99.90
31084;DHT22;36333;51.382;0.016;2022-08-21T03:53:44;14.20;99.90
31084;DHT22;36333;51.382;0.016;2022-08-21T03:56:12;14.20;99.90
31084;DHT22;36333;51.382;0.016;2022-08-21T03:58:39;14.30;99.90
31084;DHT22;36333;51.382;0.016;2022-08-21T04:01:08;14.30;99.90
31084;DHT22;36333;51.382;0.016;2022-08-21T04:03:36;14.20;99.90
31084;DHT22;36333;51.382;0.016;2022-08-21T04:06:04;14.20;99.90
31084;DHT22;36333;51.382;0.016;2022-08-21T04:08:32;14.20;99.90
31084;DHT22;36333;51.382;0.016;2022-08-21T04:11:01;14.20;99.90
31084;DHT22;36333;51.382;0.016;2022-08-21T04:13:29;14.10;99.90
31084;DHT22;36333;51.382;0.016;2022-08-21T04:15:56;14.10;99.90
31084;DHT22;36333;51.382;0.016;2022-08-21T04:18:25;14.10;99.90
31084;DHT22;36333;51.382;0.016;2022-08-21T04:20:54;13.10;99.90
31084;DHT22;36333;51.382;0.016;2022-08-21T04:23:24;14.00;99.90
31084;DHT22;36333;51.382;0.016;2022-08-21T04:25:56;12.70;99.90
31084;DHT22;36333;51.382;0.016;2022-08-21T04:28:25;14.00;99.90
31084;DHT22;36333;51.382;0.016;2022-08-21T04:30:57;14.00;99.90
31084;DHT22;36333;51.382;0.016;2022-08-21T04:33:24;13.90;99.90
31084;DHT22;36333;51.382;0.016;2022-08-21T04:35:53;13.90;99.90
31084;DHT22;36333;51.382;0.016;2022-08-21T04:38:20;13.90;99.90
31084;DHT22;36333;51.382;0.016;2022-08-21T04:40:49;13.90;99.90
31084;DHT22;36333;51.382;0.016;2022-08-21T04:43:17;13.90;99.90
31084;DHT22;36333;51.382;0.016;2022-08-21T04:45:46;13.80;99.90
31084;DHT22;36333;51.382;0.016;2022-08-21T04:48:17;13.90;99.90
31084;DHT22;36333;51.382;0.016;2022-08-21T04:50:59;13.80;99.90
31084;DHT22;36333;51.382;0.016;2022-08-21T04:53:34;13.80;99.90
31084;DHT22;36333;51.382;0.016;2022-08-21T04:56:10;13.80;99.90
31084;DHT22;36333;51.382;0.016;2022-08-21T04:58:40;13.80;99.90
31084;DHT22;36333;51.382;0.016;2022-08-21T05:01:13;13.80;99.90
31084;DHT22;36333;51.382;0.016;2022-08-21T05:03:43;13.70;99.90
31084;DHT22;36333;51.382;0.016;2022-08-21T05:06:13;13.70;99.90
31084;DHT22;36333;51.382;0.016;2022-08-21T05:08:42;13.70;99.90
31084;DHT22;36333;51.382;0.016;2022-08-21T05:11:13;13.70;99.90
31084;DHT22;36333;51.382;0.016;2022-08-21T05:13:41;13.70;99.90
31084;DHT22;36333;51.382;0.016;2022-08-21T05:16:09;13.70;99.90
31084;DHT22;36333;51.382;0.016;2022-08-21T05:18:37;13.60;99.90
31084;DHT22;36333;51.382;0.016;2022-08-21T05:21:04;13.60;99.90
31084;DHT22;36333;51.382;0.016;2022-08-21T05:23:32;13.60;99.90
31084;DHT22;36333;51.382;0.016;2022-08-21T05:26:00;13.60;99.90
31084;DHT22;36333;51.382;0.016;2022-08-21T05:28:28;13.60;99.90
31084;DHT22;36333;51.382;0.016;2022-08-21T05:30:56;13.70;99.90
31084;DHT22;36333;51.382;0.016;2022-08-21T05:33:23;13.80;99.90
31084;DHT22;36333;51.382;0.016;2022-08-21T05:35:53;13.80;99.90
31084;DHT22;36333;51.382;0.016;2022-08-21T05:38:24;13.90;99.90
31084;DHT22;36333;51.382;0.016;2022-08-21T05:40:52;14.10;99.90
31084;DHT22;36333;51.382;0.016;2022-08-21T05:43:20;14.10;99.90
31084;DHT22;36333;51.382;0.016;2022-08-21T05:45:48;14.30;99.90
31084;DHT22;36333;51.382;0.016;2022-08-21T05:48:24;14.40;99.90
31084;DHT22;36333;51.382;0.016;2022-08-21T05:50:52;14.40;99.90
31084;DHT22;36333;51.382;0.016;2022-08-21T05:53:24;14.60;99.90
31084;DHT22;36333;51.382;0.016;2022-08-21T05:55:52;14.60;99.90
31084;DHT22;36333;51.382;0.016;2022-08-21T05:58:21;14.70;99.90
31084;DHT22;36333;51.382;0.016;2022-08-21T06:00:51;14.80;99.90
31084;DHT22;36333;51.382;0.016;2022-08-21T06:03:25;14.90;99.90
31084;DHT22;36333;51.382;0.016;2022-08-21T06:05:54;15.00;99.90
31084;DHT22;36333;51.382;0.016;2022-08-21T06:08:22;15.10;99.90
31084;DHT22;36333;51.382;0.016;2022-08-21T06:10:52;15.20;99.90
31084;DHT22;36333;51.382;0.016;2022-08-21T06:13:21;15.50;99.90
31084;DHT22;36333;51.382;0.016;2022-08-21T06:15:59;15.30;99.90
31084;DHT22;36333;51.382;0.016;2022-08-21T06:18:27;15.40;99.90
31084;DHT22;36333;51.382;0.016;2022-08-21T06:20:55;15.40;99.90
31084;DHT22;36333;51.382;0.016;2022-08-21T06:23:24;15.40;99.90
31084;DHT22;36333;51.382;0.016;2022-08-21T06:26:03;15.40;99.90
31084;DHT22;36333;51.382;0.016;2022-08-21T06:28:32;15.40;99.90
31084;DHT22;36333;51.382;0.016;2022-08-21T06:31:00;15.40;99.90
31084;DHT22;36333;51.382;0.016;2022-08-21T06:33:28;15.50;99.90
31084;DHT22;36333;51.382;0.016;2022-08-21T06:35:59;15.50;99.90
31084;DHT22;36333;51.382;0.016;2022-08-21T06:38:27;15.50;99.90
31084;DHT22;36333;51.382;0.016;2022-08-21T06:40:55;15.60;99.90
31084;DHT22;36333;51.382;0.016;2022-08-21T06:43:24;15.70;99.90
31084;DHT22;36333;51.382;0.016;2022-08-21T06:46:07;15.80;99.90
31084;DHT22;36333;51.382;0.016;2022-08-21T06:48:35;15.90;99.90
31084;DHT22;36333;51.382;0.016;2022-08-21T06:51:03;16.00;99.90
31084;DHT22;36333;51.382;0.016;2022-08-21T06:53:30;16.10;99.90
31084;DHT22;36333;51.382;0.016;2022-08-21T06:55:58;16.20;99.90
31084;DHT22;36333;51.382;0.016;2022-08-21T06:58:26;16.30;99.90
31084;DHT22;36333;51.382;0.016;2022-08-21T07:00:53;16.40;99.90
31084;DHT22;36333;51.382;0.016;2022-08-21T07:03:30;16.40;99.90
31084;DHT22;36333;51.382;0.016;2022-08-21T07:05:58;16.50;99.90
31084;DHT22;36333;51.382;0.016;2022-08-21T07:08:26;16.60;99.90
31084;DHT22;36333;51.382;0.016;2022-08-21T07:10:57;16.70;99.90
31084;DHT22;36333;51.382;0.016;2022-08-21T07:13:25;16.80;99.90
31084;DHT22;36333;51.382;0.016;2022-08-21T07:15:52;17.30;99.90
31084;DHT22;36333;51.382;0.016;2022-08-21T07:18:20;17.10;99.90
31084;DHT22;36333;51.382;0.016;2022-08-21T07:20:48;17.20;99.90
31084;DHT22;36333;51.382;0.016;2022-08-21T07:23:24;17.40;99.90
31084;DHT22;36333;51.382;0.016;2022-08-21T07:25:53;17.60;99.90
31084;DHT22;36333;51.382;0.016;2022-08-21T07:28:21;17.70;99.90
31084;DHT22;36333;51.382;0.016;2022-08-21T07:30:53;17.80;99.90
31084;DHT22;36333;51.382;0.016;2022-08-21T07:33:22;18.00;99.90
31084;DHT22;36333;51.382;0.016;2022-08-21T07:35:50;18.10;99.90
31084;DHT22;36333;51.382;0.016;2022-08-21T07:38:18;18.20;99.90
31084;DHT22;36333;51.382;0.016;2022-08-21T07:40:46;18.30;99.70
31084;DHT22;36333;51.382;0.016;2022-08-21T07:43:15;18.40;97.70
31084;DHT22;36333;51.382;0.016;2022-08-21T07:45:45;18.50;98.80
31084;DHT22;36333;51.382;0.016;2022-08-21T07:48:16;18.60;98.90
31084;DHT22;36333;51.382;0.016;2022-08-21T07:50:44;18.70;97.90
31084;DHT22;36333;51.382;0.016;2022-08-21T07:53:14;18.80;97.40
31084;DHT22;36333;51.382;0.016;2022-08-21T07:55:42;18.90;97.10
31084;DHT22;36333;51.382;0.016;2022-08-21T07:58:10;18.90;96.30
31084;DHT22;36333;51.382;0.016;2022-08-21T08:00:37;19.00;96.10
31084;DHT22;36333;51.382;0.016;2022-08-21T08:03:05;19.10;95.70
31084;DHT22;36333;51.382;0.016;2022-08-21T08:05:35;19.20;95.20
31084;DHT22;36333;51.382;0.016;2022-08-21T08:08:04;19.30;95.00
31084;DHT22;36333;51.382;0.016;2022-08-21T08:10:32;19.40;95.10
31084;DHT22;36333;51.382;0.016;2022-08-21T08:13:00;19.50;94.60
31084;DHT22;36333;51.382;0.016;2022-08-21T08:15:28;19.60;94.30
31084;DHT22;36333;51.382;0.016;2022-08-21T08:18:03;19.60;93.70
31084;DHT22;36333;51.382;0.016;2022-08-21T08:20:31;19.70;93.60
31084;DHT22;36333;51.382;0.016;2022-08-21T08:22:59;19.00;93.00
31084;DHT22;36333;51.382;0.016;2022-08-21T08:25:27;19.80;93.20
31084;DHT22;36333;51.382;0.016;2022-08-21T08:28:04;19.60;91.60
31084;DHT22;36333;51.382;0.016;2022-08-21T08:30:52;19.90;92.40
31084;DHT22;36333;51.382;0.016;2022-08-21T08:33:20;19.80;91.50
31084;DHT22;36333;51.382;0.016;2022-08-21T08:35:51;19.80;92.00
31084;DHT22;36333;51.382;0.016;2022-08-21T08:38:21;19.90;91.70
31084;DHT22;36333;51.382;0.016;2022-08-21T08:41:08;19.80;91.30
31084;DHT22;36333;51.382;0.016;2022-08-21T08:43:44;19.90;90.70
31084;DHT22;36333;51.382;0.016;2022-08-21T08:46:20;19.90;90.70
31084;DHT22;36333;51.382;0.016;2022-08-21T08:51:58;20.10;90.30
31084;DHT22;36333;51.382;0.016;2022-08-21T08:56:55;20.20;90.20
31084;DHT22;36333;51.382;0.016;2022-08-21T08:59:27;20.20;90.00
31084;DHT22;36333;51.382;0.016;2022-08-21T09:02:56;20.20;88.20
31084;DHT22;36333;51.382;0.016;2022-08-21T09:05:46;21.60;88.30
31084;DHT22;36333;51.382;0.016;2022-08-21T09:08:48;20.60;90.30
31084;DHT22;36333;51.382;0.016;2022-08-21T09:11:41;20.50;87.60
31084;DHT22;36333;51.382;0.016;2022-08-21T09:26:19;20.50;83.10
31084;DHT22;36333;51.382;0.016;2022-08-21T09:29:05;20.60;84.40
31084;DHT22;36333;51.382;0.016;2022-08-21T09:31:36;20.60;81.90
31084;DHT22;36333;51.382;0.016;2022-08-21T09:34:11;20.60;83.70
31084;DHT22;36333;51.382;0.016;2022-08-21T09:36:49;20.70;82.80
31084;DHT22;36333;51.382;0.016;2022-08-21T09:39:36;20.80;81.10
31084;DHT22;36333;51.382;0.016;2022-08-21T09:42:09;20.90;80.20
31084;DHT22;36333;51.382;0.016;2022-08-21T09:44:41;21.10;80.90
31084;DHT22;36333;51.382;0.016;2022-08-21T09:47:11;21.20;78.80
31084;DHT22;36333;51.382;0.016;2022-08-21T09:49:42;21.00;79.70
31084;DHT22;36333;51.382;0.016;2022-08-21T09:52:20;20.90;80.20
31084;DHT22;36333;51.382;0.016;2022-08-21T09:54:54;20.90;78.90
31084;DHT22;36333;51.382;0.016;2022-08-21T09:57:46;20.80;79.80
31084;DHT22;36333;51.382;0.016;2022-08-21T10:00:45;20.70;80.90
31084;DHT22;36333;51.382;0.016;2022-08-21T10:03:17;20.90;80.90
31084;DHT22;36333;51.382;0.016;2022-08-21T10:05:57;21.10;80.50
31084;DHT22;36333;51.382;0.016;2022-08-21T10:08:28;21.00;79.50
31084;DHT22;36333;51.382;0.016;2022-08-21T10:11:11;21.10;78.50
31084;DHT22;36333;51.382;0.016;2022-08-21T10:17:07;21.20;78.20
31084;DHT22;36333;51.382;0.016;2022-08-21T10:20:01;21.30;78.00
31084;DHT22;36333;51.382;0.016;2022-08-21T10:23:07;21.50;78.30
31084;DHT22;36333;51.382;0.016;2022-08-21T10:36:59;21.90;76.50
31084;DHT22;36333;51.382;0.016;2022-08-21T10:39:59;22.20;74.20
31084;DHT22;36333;51.382;0.016;2022-08-21T10:48:08;23.70;72.50
31084;DHT22;36333;51.382;0.016;2022-08-21T10:50:50;23.70;71.80
31084;DHT22;36333;51.382;0.016;2022-08-21T10:56:19;24.30;68.90
31084;DHT22;36333;51.382;0.016;2022-08-21T11:01:55;24.60;67.10
31084;DHT22;36333;51.382;0.016;2022-08-21T11:04:25;24.80;68.20
31084;DHT22;36333;51.382;0.016;2022-08-21T11:07:22;24.90;68.40
31084;DHT22;36333;51.382;0.016;2022-08-21T11:10:24;25.00;67.50
31084;DHT22;36333;51.382;0.016;2022-08-21T11:13:13;26.50;70.50
31084;DHT22;36333;51.382;0.016;2022-08-21T11:18:33;25.20;67.30
31084;DHT22;36333;51.382;0.016;2022-08-21T11:21:43;25.30;65.40
31084;DHT22;36333;51.382;0.016;2022-08-21T11:24:29;25.20;66.00
31084;DHT22;36333;51.382;0.016;2022-08-21T11:29:38;25.30;66.50
31084;DHT22;36333;51.382;0.016;2022-08-21T11:38:19;25.40;65.10
31084;DHT22;36333;51.382;0.016;2022-08-21T11:43:43;25.00;66.40
31084;DHT22;36333;51.382;0.016;2022-08-21T11:49:12;23.20;65.40
31084;DHT22;36333;51.382;0.016;2022-08-21T11:52:07;24.70;66.30
31084;DHT22;36333;51.382;0.016;2022-08-21T11:57:40;24.50;67.20
31084;DHT22;36333;51.382;0.016;2022-08-21T12:00:20;24.40;66.70
31084;DHT22;36333;51.382;0.016;2022-08-21T12:02:56;24.40;67.20
31084;DHT22;36333;51.382;0.016;2022-08-21T12:05:33;24.20;67.50
31084;DHT22;36333;51.382;0.016;2022-08-21T12:08:06;24.10;67.10
31084;DHT22;36333;51.382;0.016;2022-08-21T12:10:42;24.50;67.10
31084;DHT22;36333;51.382;0.016;2022-08-21T12:13:22;24.20;66.40
31084;DHT22;36333;51.382;0.016;2022-08-21T12:18:34;24.60;67.50
31084;DHT22;36333;51.382;0.016;2022-08-21T12:21:16;24.70;67.20
31084;DHT22;36333;51.382;0.016;2022-08-21T12:24:05;24.80;66.80
31084;DHT22;36333;51.382;0.016;2022-08-21T12:26:51;24.90;65.10
31084;DHT22;36333;51.382;0.016;2022-08-21T12:29:28;25.00;65.50
31084;DHT22;36333;51.382;0.016;2022-08-21T12:34:49;25.00;65.10
31084;DHT22;36333;51.382;0.016;2022-08-21T12:37:39;25.00;64.40
31084;DHT22;36333;51.382;0.016;2022-08-21T12:40:22;25.10;64.30
31084;DHT22;36333;51.382;0.016;2022-08-21T12:42:53;25.00;65.00
31084;DHT22;36333;51.382;0.016;2022-08-21T12:45:48;25.10;65.70
31084;DHT22;36333;51.382;0.016;2022-08-21T12:51:22;24.10;65.10
31084;DHT22;36333;51.382;0.016;2022-08-21T12:53:57;25.50;65.50
31084;DHT22;36333;51.382;0.016;2022-08-21T12:56:29;25.50;66.10
31084;DHT22;36333;51.382;0.016;2022-08-21T12:59:12;26.00;66.00
31084;DHT22;36333;51.382;0.016;2022-08-21T13:01:48;25.60;67.80
31084;DHT22;36333;51.382;0.016;2022-08-21T13:04:38;25.70;66.00
31084;DHT22;36333;51.382;0.016;2022-08-21T13:07:13;25.80;65.10
31084;DHT22;36333;51.382;0.016;2022-08-21T13:09:56;25.80;65.20
31084;DHT22;36333;51.382;0.016;2022-08-21T13:12:25;25.80;64.20
31084;DHT22;36333;51.382;0.016;2022-08-21T13:15:02;25.80;65.10
31084;DHT22;36333;51.382;0.016;2022-08-21T13:17:39;25.90;64.80
31084;DHT22;36333;51.382;0.016;2022-08-21T13:23:24;26.50;65.20
31084;DHT22;36333;51.382;0.016;2022-08-21T13:26:00;26.30;63.70
31084;DHT22;36333;51.382;0.016;2022-08-21T13:28:34;27.10;66.20
31084;DHT22;36333;51.382;0.016;2022-08-21T13:31:08;27.10;64.10
31084;DHT22;36333;51.382;0.016;2022-08-21T13:33:38;27.40;63.50
31084;DHT22;36333;51.382;0.016;2022-08-21T13:36:11;27.70;64.50
31084;DHT22;36333;51.382;0.016;2022-08-21T13:38:42;27.50;63.30
31084;DHT22;36333;51.382;0.016;2022-08-21T13:41:24;27.50;63.30
31084;DHT22;36333;51.382;0.016;2022-08-21T13:44:22;27.70;61.80
31084;DHT22;36333;51.382;0.016;2022-08-21T13:46:57;27.60;60.80
31084;DHT22;36333;51.382;0.016;2022-08-21T13:49:35;26.00;61.20
31084;DHT22;36333;51.382;0.016;2022-08-21T13:52:05;27.10;61.30
31084;DHT22;36333;51.382;0.016;2022-08-21T13:54:41;26.90;62.40
31084;DHT22;36333;51.382;0.016;2022-08-21T13:57:28;27.00;62.30
31084;DHT22;36333;51.382;0.016;2022-08-21T14:00:26;27.10;61.50
31084;DHT22;36333;51.382;0.016;2022-08-21T14:03:23;27.50;61.50
31084;DHT22;36333;51.382;0.016;2022-08-21T14:06:34;30.20;62.40
31084;DHT22;36333;51.382;0.016;2022-08-21T14:09:08;27.90;62.10
31084;DHT22;36333;51.382;0.016;2022-08-21T14:11:37;27.50;60.70
31084;DHT22;36333;51.382;0.016;2022-08-21T14:14:45;27.40;61.40
31084;DHT22;36333;51.382;0.016;2022-08-21T14:17:25;28.00;60.60
31084;DHT22;36333;51.382;0.016;2022-08-21T14:20:00;28.80;60.60
31084;DHT22;36333;51.382;0.016;2022-08-21T14:25:39;30.60;58.90
31084;DHT22;36333;51.382;0.016;2022-08-21T14:31:17;30.30;56.70
31084;DHT22;36333;51.382;0.016;2022-08-21T14:33:48;31.20;57.40
31084;DHT22;36333;51.382;0.016;2022-08-21T14:36:16;32.10;59.00
31084;DHT22;36333;51.382;0.016;2022-08-21T14:38:55;30.90;59.70
31084;DHT22;36333;51.382;0.016;2022-08-21T14:41:25;32.50;58.40
31084;DHT22;36333;51.382;0.016;2022-08-21T14:43:56;31.80;56.00
31084;DHT22;36333;51.382;0.016;2022-08-21T14:46:36;31.10;57.60
31084;DHT22;36333;51.382;0.016;2022-08-21T14:49:25;30.60;58.30
31084;DHT22;36333;51.382;0.016;2022-08-21T14:52:04;30.10;56.70
31084;DHT22;36333;51.382;0.016;2022-08-21T14:54:43;30.90;61.00
31084;DHT22;36333;51.382;0.016;2022-08-21T14:57:53;31.40;59.50
31084;DHT22;36333;51.382;0.016;2022-08-21T15:00:35;35.10;55.10
31084;DHT22;36333;51.382;0.016;2022-08-21T15:03:03;33.00;56.20
31084;DHT22;36333;51.382;0.016;2022-08-21T15:05:31;34.70;52.90
31084;DHT22;36333;51.382;0.016;2022-08-21T15:08:01;34.20;54.50
31084;DHT22;36333;51.382;0.016;2022-08-21T15:10:30;33.70;53.50
31084;DHT22;36333;51.382;0.016;2022-08-21T15:12:58;33.60;53.70
31084;DHT22;36333;51.382;0.016;2022-08-21T15:15:26;33.30;54.20
31084;DHT22;36333;51.382;0.016;2022-08-21T15:17:53;32.90;52.80
31084;DHT22;36333;51.382;0.016;2022-08-21T15:20:21;32.40;52.70
31084;DHT22;36333;51.382;0.016;2022-08-21T15:22:49;31.90;53.20
31084;DHT22;36333;51.382;0.016;2022-08-21T15:25:17;31.50;53.80
31084;DHT22;36333;51.382;0.016;2022-08-21T15:27:44;31.10;54.50
31084;DHT22;36333;51.382;0.016;2022-08-21T15:30:12;30.70;55.40
31084;DHT22;36333;51.382;0.016;2022-08-21T15:32:40;30.30;56.00
31084;DHT22;36333;51.382;0.016;2022-08-21T15:35:09;29.90;56.00
31084;DHT22;36333;51.382;0.016;2022-08-21T15:37:36;29.50;57.20
31084;DHT22;36333;51.382;0.016;2022-08-21T15:40:04;29.30;57.60
31084;DHT22;36333;51.382;0.016;2022-08-21T15:42:34;28.90;58.20
31084;DHT22;36333;51.382;0.016;2022-08-21T15:45:03;28.70;58.80
31084;DHT22;36333;51.382;0.016;2022-08-21T15:47:36;28.60;58.90
31084;DHT22;36333;51.382;0.016;2022-08-21T15:50:07;28.40;59.50
31084;DHT22;36333;51.382;0.016;2022-08-21T15:52:35;28.00;59.20
31084;DHT22;36333;51.382;0.016;2022-08-21T15:55:06;28.20;60.00
31084;DHT22;36333;51.382;0.016;2022-08-21T15:57:37;29.80;61.30
31084;DHT22;36333;51.382;0.016;2022-08-21T16:00:19;27.80;60.80
31084;DHT22;36333;51.382;0.016;2022-08-21T16:02:50;27.60;61.00
31084;DHT22;36333;51.382;0.016;2022-08-21T16:05:20;27.50;61.10
31084;DHT22;36333;51.382;0.016;2022-08-21T16:07:48;27.30;61.10
31084;DHT22;36333;51.382;0.016;2022-08-21T16:10:20;27.20;61.20
31084;DHT22;36333;51.382;0.016;2022-08-21T16:12:56;27.20;60.90
31084;DHT22;36333;51.382;0.016;2022-08-21T16:15:26;27.20;60.10
31084;DHT22;36333;51.382;0.016;2022-08-21T16:17:54;27.20;60.50
31084;DHT22;36333;51.382;0.016;2022-08-21T16:20:25;27.30;60.60
31084;DHT22;36333;51.382;0.016;2022-08-21T16:22:55;27.30;60.40
31084;DHT22;36333;51.382;0.016;2022-08-21T16:25:23;27.50;60.90
31084;DHT22;36333;51.382;0.016;2022-08-21T16:27:55;27.30;62.70
31084;DHT22;36333;51.382;0.016;2022-08-21T16:30:27;28.00;61.60
31084;DHT22;36333;51.382;0.016;2022-08-21T16:32:55;27.20;60.70
31084;DHT22;36333;51.382;0.016;2022-08-21T16:35:23;27.00;60.50
31084;DHT22;36333;51.382;0.016;2022-08-21T16:38:00;25.60;61.20
31084;DHT22;36333;51.382;0.016;2022-08-21T16:40:28;27.30;60.70
31084;DHT22;36333;51.382;0.016;2022-08-21T16:42:56;26.80;60.80
31084;DHT22;36333;51.382;0.016;2022-08-21T16:45:24;26.80;60.70
31084;DHT22;36333;51.382;0.016;2022-08-21T16:47:59;26.80;63.60
31084;DHT22;36333;51.382;0.016;2022-08-21T16:50:26;26.70;61.00
31084;DHT22;36333;51.382;0.016;2022-08-21T16:52:54;26.70;61.40
31084;DHT22;36333;51.382;0.016;2022-08-21T16:55:21;26.70;60.70
31084;DHT22;36333;51.382;0.016;2022-08-21T16:57:49;26.60;60.70
31084;DHT22;36333;51.382;0.016;2022-08-21T17:00:17;26.60;60.80
31084;DHT22;36333;51.382;0.016;2022-08-21T17:02:47;26.40;61.00
31084;DHT22;36333;51.382;0.016;2022-08-21T17:05:16;25.60;60.50
31084;DHT22;36333;51.382;0.016;2022-08-21T17:07:43;26.20;62.60
31084;DHT22;36333;51.382;0.016;2022-08-21T17:10:15;26.10;63.00
31084;DHT22;36333;51.382;0.016;2022-08-21T17:12:48;25.80;64.80
31084;DHT22;36333;51.382;0.016;2022-08-21T17:15:22;25.60;66.50
31084;DHT22;36333;51.382;0.016;2022-08-21T17:17:50;25.40;69.70
31084;DHT22;36333;51.382;0.016;2022-08-21T17:20:22;25.10;68.60
31084;DHT22;36333;51.382;0.016;2022-08-21T17:22:53;25.00;69.70
31084;DHT22;36333;51.382;0.016;2022-08-21T17:28:36;24.30;69.90
31084;DHT22;36333;51.382;0.016;2022-08-21T17:31:07;23.90;74.30